Time;durP1;ratioP1;P1;durP2;ratioP2;P2;SDS_P1;SDS_P2;PMS_P1;PMS_P2;Temp;Humidity;BMP_temperature;BMP_pressure;BME280_temperature;BME280_humidity;BME280_pressure;Samples;Min_cycle;Max_cycle;Signal;HPM_P1;HPM_P2
2022/09/09 00:02:04;;;;;;;17.02;4.45;;;;;;;14.13;100.00;99603.16;5016170;28;20034;-82
2022/09/09 00:04:35;;;;;;;9.68;3.83;;;;;;;14.13;100.00;99601.34;5001314;28;20433;-85
2022/09/09 00:07:21;;;;;;;7.75;4.20;;;;;;;14.15;100.00;99595.84;4960040;28;20392;-81
2022/09/09 00:09:53;;;;;;;6.70;3.53;;;;;;;14.15;100.00;99606.47;4955851;28;20049;-82
2022/09/09 00:12:32;;;;;;;8.63;3.70;;;;;;;14.13;100.00;99609.31;5015769;28;20039;-84
2022/09/09 00:15:20;;;;;;;8.48;3.78;;;;;;;14.10;100.00;99600.88;4983211;28;20058;-85
2022/09/09 00:18:24;;;;;;;8.45;4.03;;;;;;;14.03;100.00;99616.75;4949143;28;20034;-83
2022/09/09 00:21:07;;;;;;;8.85;4.13;;;;;;;14.05;100.00;99611.28;4892305;29;20519;-86
2022/09/09 00:23:44;;;;;;;13.80;4.65;;;;;;;14.05;100.00;99612.09;4979006;28;20497;-84
2022/09/09 00:26:18;;;;;;;11.70;4.00;;;;;;;14.06;100.00;99608.44;4981152;28;20046;-82
2022/09/09 00:29:05;;;;;;;13.05;4.97;;;;;;;14.06;100.00;99613.75;5018068;28;20405;-81
2022/09/09 00:31:32;;;;;;;8.30;4.47;;;;;;;14.07;100.00;99622.53;4973687;28;20053;-81
2022/09/09 00:34:17;;;;;;;8.88;5.13;;;;;;;14.09;100.00;99625.81;4984688;28;20552;-82
2022/09/09 00:36:45;;;;;;;12.48;4.45;;;;;;;14.10;100.00;99622.97;4991296;28;20034;-81
2022/09/09 00:39:37;;;;;;;11.90;5.00;;;;;;;14.12;100.00;99612.16;4989588;28;20832;-82
2022/09/09 00:42:08;;;;;;;9.38;4.65;;;;;;;14.16;100.00;99607.31;4946774;28;20050;-83
2022/09/09 00:44:37;;;;;;;11.27;5.75;;;;;;;14.19;100.00;99609.56;4991179;28;20042;-82
2022/09/09 00:47:19;;;;;;;10.77;6.40;;;;;;;14.20;100.00;99612.03;4966035;28;20057;-82
2022/09/09 00:50:32;;;;;;;14.55;5.07;;;;;;;14.19;100.00;99620.22;5001491;28;20447;-82
2022/09/09 00:53:29;;;;;;;12.98;5.28;;;;;;;14.24;100.00;99623.09;4961957;28;20206;-82
2022/09/09 00:56:21;;;;;;;8.82;5.45;;;;;;;14.27;100.00;99628.03;5005711;28;20481;-82
2022/09/09 00:59:10;;;;;;;11.57;5.15;;;;;;;14.31;100.00;99620.50;5016746;28;20031;-82
2022/09/09 01:01:36;;;;;;;10.30;4.57;;;;;;;14.33;100.00;99618.50;5001437;28;20038;-82
2022/09/09 01:04:10;;;;;;;8.98;4.55;;;;;;;14.35;100.00;99616.50;5006503;28;20042;-82
2022/09/09 01:06:46;;;;;;;9.38;4.50;;;;;;;14.35;100.00;99624.47;4994678;28;20038;-84
2022/09/09 01:09:22;;;;;;;;;;;;;;;14.21;100.00;99618.16;4967472;28;20082;-80
2022/09/09 01:11:57;;;;;;;7.20;3.77;;;;;;;14.26;100.00;99627.25;4989394;28;19921;-86
2022/09/09 01:14:34;;;;;;;8.35;4.10;;;;;;;14.24;100.00;99631.06;4987321;28;20125;-86
2022/09/09 01:17:22;;;;;;;5.97;3.78;;;;;;;14.20;100.00;99621.84;5018485;28;20165;-82
2022/09/09 01:20:17;;;;;;;8.52;4.45;;;;;;;14.17;100.00;99623.06;4987530;28;20400;-80
2022/09/09 01:23:26;;;;;;;10.70;4.32;;;;;;;14.20;100.00;99633.31;4979744;28;20078;-83
2022/09/09 01:26:27;;;;;;;14.48;4.13;;;;;;;14.20;100.00;99635.97;4986864;28;20110;-82
2022/09/09 01:28:55;;;;;;;10.25;3.45;;;;;;;14.21;100.00;99631.44;4987533;28;20071;-83
2022/09/09 01:31:53;;;;;;;8.48;4.43;;;;;;;14.18;100.00;99645.94;4970829;28;20090;-81
2022/09/09 01:34:20;;;;;;;12.43;4.00;;;;;;;14.11;100.00;99647.72;4996502;28;20034;-82
2022/09/09 01:37:04;;;;;;;8.65;4.40;;;;;;;14.07;100.00;99647.28;4969745;28;20034;-83
2022/09/09 01:39:33;;;;;;;8.60;4.55;;;;;;;14.02;100.00;99642.50;4988901;28;20058;-83
2022/09/09 01:42:08;;;;;;;10.18;4.65;;;;;;;14.00;100.00;99641.88;4998349;28;20114;-83
2022/09/09 01:44:36;;;;;;;10.77;5.05;;;;;;;14.02;100.00;99649.66;5015795;28;20029;-84
2022/09/09 01:47:03;;;;;;;10.95;5.38;;;;;;;13.97;100.00;99647.56;4992543;28;20761;-81
2022/09/09 01:49:29;;;;;;;12.02;4.55;;;;;;;13.96;100.00;99647.75;4983985;28;20038;-81
2022/09/09 01:51:57;;;;;;;12.18;4.93;;;;;;;13.95;100.00;99648.75;4992463;28;20038;-82
2022/09/09 01:54:40;;;;;;;14.10;5.10;;;;;;;13.94;100.00;99647.94;4995541;28;20118;-86
2022/09/09 01:57:22;;;;;;;13.88;5.18;;;;;;;13.94;100.00;99644.44;4975688;28;20058;-82
2022/09/09 02:00:03;;;;;;;15.68;5.45;;;;;;;13.90;100.00;99641.34;5005546;28;20061;-88
2022/09/09 02:03:04;;;;;;;13.57;5.60;;;;;;;13.90;100.00;99646.66;4991515;28;20038;-87
2022/09/09 02:05:40;;;;;;;8.88;5.05;;;;;;;13.86;100.00;99642.72;5019793;28;20103;-81
2022/09/09 02:08:39;;;;;;;14.98;5.53;;;;;;;13.87;100.00;99647.03;4974411;28;20045;-86
2022/09/09 02:11:19;;;;;;;12.93;5.63;;;;;;;13.86;100.00;99646.22;5006746;28;20038;-81
2022/09/09 02:14:13;;;;;;;11.35;5.15;;;;;;;13.85;100.00;99643.75;4981597;28;20487;-82
2022/09/09 02:16:55;;;;;;;13.77;5.32;;;;;;;13.87;100.00;99644.38;4987162;28;20490;-87
2022/09/09 02:19:32;;;;;;;12.27;5.97;;;;;;;13.87;100.00;99645.19;4955125;28;20045;-83
2022/09/09 02:22:07;;;;;;;15.25;6.00;;;;;;;13.85;100.00;99644.56;5005789;28;20117;-84
2022/09/09 02:24:36;;;;;;;9.57;5.05;;;;;;;13.87;100.00;99633.75;4965424;28;20455;-89
2022/09/09 02:27:22;;;;;;;7.82;4.25;;;;;;;13.85;100.00;99639.25;4972212;28;20400;-82
2022/09/09 02:29:50;;;;;;;17.65;4.78;;;;;;;13.83;100.00;99643.94;4983144;28;20476;-83
2022/09/09 02:32:22;;;;;;;10.20;4.53;;;;;;;13.82;100.00;99641.47;4986764;28;20035;-86
2022/09/09 02:34:54;;;;;;;13.60;4.68;;;;;;;13.78;100.00;99638.34;4977158;28;20516;-84
2022/09/09 02:37:25;;;;;;;12.48;4.40;;;;;;;13.74;100.00;99639.72;5009601;28;20066;-85
2022/09/09 02:39:52;;;;;;;9.02;4.38;;;;;;;13.69;100.00;99637.63;4989450;28;20044;-87
2022/09/09 02:42:21;;;;;;;13.68;4.20;;;;;;;13.67;100.00;99636.97;4957999;28;20055;-83
2022/09/09 02:44:47;;;;;;;8.77;4.50;;;;;;;13.66;100.00;99635.34;5005297;28;20547;-83
2022/09/09 02:47:29;;;;;;;12.43;4.57;;;;;;;13.66;100.00;99631.84;4963543;28;20050;-84
2022/09/09 02:50:08;;;;;;;10.25;3.92;;;;;;;13.69;100.00;99636.78;4997116;28;20424;-86
2022/09/09 02:52:54;;;;;;;10.25;3.28;;;;;;;13.68;100.00;99643.94;5000207;28;20049;-83
2022/09/09 02:55:29;;;;;;;;;;;;;;;13.60;100.00;99644.06;5000269;28;20034;-84
2022/09/09 02:57:59;;;;;;;13.63;4.18;;;;;;;13.66;100.00;99648.63;4981154;28;19913;-84
2022/09/09 03:00:28;;;;;;;10.80;3.60;;;;;;;13.69;100.00;99647.41;4986895;28;20042;-84
2022/09/09 03:02:59;;;;;;;6.75;3.30;;;;;;;13.71;100.00;99646.22;4946606;28;20038;-87
2022/09/09 03:05:26;;;;;;;10.55;3.35;;;;;;;13.74;100.00;99653.00;4957427;28;20031;-84
2022/09/09 03:07:52;;;;;;;7.45;3.60;;;;;;;13.79;100.00;99657.75;4972753;28;20042;-84
2022/09/09 03:10:19;;;;;;;9.82;4.28;;;;;;;13.81;100.00;99653.91;4987904;28;20116;-84
2022/09/09 03:12:45;;;;;;;9.90;4.72;;;;;;;13.85;100.00;99655.19;4991378;28;20042;-85
2022/09/09 03:15:11;;;;;;;13.77;5.30;;;;;;;13.83;100.00;99651.06;4981399;28;20034;-88
2022/09/09 03:17:39;;;;;;;8.77;4.55;;;;;;;13.82;100.00;99655.56;4985564;28;20058;-85
2022/09/09 03:20:05;;;;;;;8.15;4.13;;;;;;;13.81;100.00;99659.22;4982295;28;20101;-85
2022/09/09 03:22:33;;;;;;;10.45;5.07;;;;;;;13.80;100.00;99654.91;4907024;28;20056;-84
2022/09/09 03:25:02;;;;;;;8.57;4.75;;;;;;;13.80;100.00;99649.59;4966605;28;20038;-83
2022/09/09 03:27:29;;;;;;;10.50;4.35;;;;;;;13.81;100.00;99653.91;4973903;28;20038;-80
2022/09/09 03:29:57;;;;;;;15.48;4.90;;;;;;;13.80;100.00;99652.25;5009954;28;20116;-87
2022/09/09 03:32:25;;;;;;;10.50;4.63;;;;;;;13.82;100.00;99652.91;5028824;28;20030;-85
2022/09/09 03:34:52;;;;;;;15.18;4.63;;;;;;;13.83;100.00;99659.03;4989703;28;20096;-84
2022/09/09 03:37:19;;;;;;;13.25;4.47;;;;;;;13.84;100.00;99658.84;4975005;28;20500;-85
2022/09/09 03:39:46;;;;;;;16.33;5.75;;;;;;;13.85;100.00;99662.34;4957153;28;20112;-83
2022/09/09 03:42:14;;;;;;;14.40;4.47;;;;;;;13.88;100.00;99664.63;5009632;28;20066;-88
2022/09/09 03:44:41;;;;;;;14.30;4.43;;;;;;;13.88;100.00;99656.66;4994529;28;20088;-87
2022/09/09 03:47:08;;;;;;;11.85;4.85;;;;;;;13.88;100.00;99660.13;5009406;28;20125;-81
2022/09/09 03:49:34;;;;;;;6.65;4.07;;;;;;;13.88;100.00;99654.81;4988788;28;20041;-86
2022/09/09 03:52:00;;;;;;;10.55;4.07;;;;;;;13.87;100.00;99653.16;4997476;28;20484;-83
2022/09/09 03:54:27;;;;;;;11.93;4.63;;;;;;;13.89;100.00;99658.28;4993391;28;20030;-84
2022/09/09 03:56:53;;;;;;;12.45;4.60;;;;;;;13.88;100.00;99661.97;5000954;28;20057;-85
2022/09/09 03:59:21;;;;;;;14.13;4.78;;;;;;;13.87;100.00;99669.09;4975018;28;20112;-88
2022/09/09 04:01:47;;;;;;;13.88;4.65;;;;;;;13.88;100.00;99667.28;4996923;28;20477;-87
2022/09/09 04:04:13;;;;;;;9.93;4.18;;;;;;;13.86;100.00;99666.63;4978591;28;20080;-82
2022/09/09 04:06:39;;;;;;;10.18;4.05;;;;;;;13.85;100.00;99671.13;4985370;28;20071;-86
2022/09/09 04:09:04;;;;;;;14.60;4.32;;;;;;;13.84;100.00;99664.16;5022618;28;20136;-88
2022/09/09 04:11:31;;;;;;;11.00;4.00;;;;;;;13.84;100.00;99673.97;4975356;28;20022;-85
2022/09/09 04:13:58;;;;;;;8.90;4.20;;;;;;;13.81;100.00;99667.19;4985209;28;20421;-81
2022/09/09 04:16:24;;;;;;;8.00;3.95;;;;;;;13.85;100.00;99672.97;4981739;28;20031;-87
2022/09/09 04:18:50;;;;;;;17.25;4.32;;;;;;;13.85;100.00;99676.44;5007571;28;20129;-85
2022/09/09 04:21:17;;;;;;;12.07;5.65;;;;;;;13.84;100.00;99666.00;4959419;28;20041;-84
2022/09/09 04:23:43;;;;;;;11.85;5.78;;;;;;;13.80;100.00;99665.53;4958992;28;20035;-82
2022/09/09 04:26:09;;;;;;;12.10;5.22;;;;;;;13.79;100.00;99668.38;4998588;28;20041;-81
2022/09/09 04:28:36;;;;;;;12.15;4.68;;;;;;;13.76;100.00;99665.09;4989365;28;20034;-82
2022/09/09 04:31:17;;;;;;;10.00;4.45;;;;;;;13.75;100.00;99663.44;4962075;28;20035;-86
2022/09/09 04:33:44;;;;;;;11.10;4.82;;;;;;;13.71;100.00;99664.81;4992452;28;20035;-81
2022/09/09 04:36:10;;;;;;;9.70;4.40;;;;;;;13.70;100.00;99665.81;4989519;28;20117;-81
2022/09/09 04:38:36;;;;;;;6.93;3.92;;;;;;;13.71;100.00;99664.81;4994847;28;20069;-82
2022/09/09 04:41:02;;;;;;;12.25;4.88;;;;;;;13.68;100.00;99664.38;5024053;28;20109;-81
2022/09/09 04:43:30;;;;;;;6.68;3.88;;;;;;;13.69;100.00;99666.00;4970318;28;20190;-85
2022/09/09 04:45:57;;;;;;;13.27;4.45;;;;;;;13.68;100.00;99661.72;5008914;28;20513;-84
2022/09/09 04:48:25;;;;;;;8.30;4.10;;;;;;;13.64;100.00;99661.25;4958971;28;20460;-80
2022/09/09 04:51:12;;;;;;;9.07;4.63;;;;;;;13.64;100.00;99658.59;4995402;28;20030;-83
2022/09/09 04:53:38;;;;;;;10.48;3.88;;;;;;;13.64;100.00;99667.41;4969150;28;20508;-84
2022/09/09 04:56:15;;;;;;;9.77;3.78;;;;;;;13.67;100.00;99666.19;5006823;28;20026;-82
2022/09/09 04:58:46;;;;;;;12.38;4.68;;;;;;;13.67;100.00;99660.88;4973670;28;20105;-82
2022/09/09 05:01:19;;;;;;;10.35;3.85;;;;;;;13.68;100.00;99665.19;4977244;28;20085;-83
2022/09/09 05:03:46;;;;;;;13.88;4.05;;;;;;;13.68;100.00;99657.22;4998628;28;20034;-83
2022/09/09 05:06:19;;;;;;;8.52;3.60;;;;;;;13.70;100.00;99665.81;4997214;28;20035;-81
2022/09/09 05:08:49;;;;;;;9.00;3.50;;;;;;;13.68;100.00;99656.41;5010513;28;20042;-86
2022/09/09 05:11:24;;;;;;;8.35;3.50;;;;;;;13.69;100.00;99666.00;4966540;28;20041;-82
2022/09/09 05:13:51;;;;;;;7.05;3.22;;;;;;;13.64;100.00;99662.09;5005492;28;20500;-84
2022/09/09 05:16:19;;;;;;;5.97;3.45;;;;;;;13.62;100.00;99660.59;4991073;28;20503;-81
2022/09/09 05:18:50;;;;;;;11.32;3.95;;;;;;;13.61;100.00;99665.09;4988780;28;20045;-83
2022/09/09 05:21:18;;;;;;;9.38;4.00;;;;;;;13.60;100.00;99667.94;4998962;28;20390;-81
2022/09/09 05:23:45;;;;;;;9.43;4.07;;;;;;;13.61;100.00;99664.28;4987218;28;20032;-87
2022/09/09 05:26:14;;;;;;;7.78;3.33;;;;;;;13.62;100.00;99664.09;4968091;28;20038;-82
2022/09/09 05:28:40;;;;;;;8.90;3.50;;;;;;;13.62;100.00;99674.72;4965618;28;20396;-80
2022/09/09 05:31:07;;;;;;;9.88;3.65;;;;;;;13.63;100.00;99673.69;4978319;28;20037;-90
2022/09/09 05:33:40;;;;;;;10.20;3.05;;;;;;;13.62;100.00;99669.41;4989572;28;20754;-81
2022/09/09 05:36:15;;;;;;;9.65;3.67;;;;;;;13.62;100.00;99664.09;4966695;28;20085;-81
2022/09/09 05:38:42;;;;;;;5.15;3.13;;;;;;;13.60;100.00;99665.28;4976462;28;20474;-80
2022/09/09 05:41:10;;;;;;;6.70;2.42;;;;;;;13.61;100.00;99661.63;4997691;28;20042;-82
2022/09/09 05:43:38;;;;;;;9.52;2.78;;;;;;;13.60;100.00;99663.44;4974936;28;20121;-82
2022/09/09 05:46:07;;;;;;;8.13;2.70;;;;;;;13.60;100.00;99668.75;4987814;28;20034;-83
2022/09/09 05:48:35;;;;;;;8.55;2.90;;;;;;;13.60;100.00;99671.41;4966133;28;20034;-85
2022/09/09 05:51:26;;;;;;;8.90;2.70;;;;;;;13.59;100.00;99675.06;4992084;28;20037;-83
2022/09/09 05:53:55;;;;;;;5.72;2.80;;;;;;;13.57;100.00;99679.75;5001408;28;20058;-81
2022/09/09 05:56:25;;;;;;;6.38;2.80;;;;;;;13.57;100.00;99668.31;4972703;28;20109;-84
2022/09/09 05:58:53;;;;;;;8.65;2.38;;;;;;;13.57;100.00;99677.09;4967324;28;20047;-81
2022/09/09 06:01:28;;;;;;;4.32;2.58;;;;;;;13.58;100.00;99675.25;4969224;28;20068;-84
2022/09/09 06:03:56;;;;;;;5.00;2.67;;;;;;;13.60;100.00;99675.91;4974210;28;20042;-82
2022/09/09 06:06:26;;;;;;;5.65;2.15;;;;;;;13.61;100.00;99678.38;4990191;28;21136;-83
2022/09/09 06:09:00;;;;;;;4.18;2.15;;;;;;;13.60;100.00;99679.38;5186845;27;20101;-81
2022/09/09 06:11:35;;;;;;;8.65;2.10;;;;;;;13.66;100.00;99682.31;5152064;27;20022;-83
2022/09/09 06:14:03;;;;;;;5.72;1.67;;;;;;;13.67;100.00;99690.09;5115432;27;20031;-80
2022/09/09 06:16:32;;;;;;;4.63;2.10;;;;;;;13.67;100.00;99692.75;5123131;27;20038;-81
2022/09/09 06:18:58;;;;;;;3.65;1.65;;;;;;;13.68;100.00;99691.72;5111608;27;20038;-79
2022/09/09 06:21:34;;;;;;;3.75;1.75;;;;;;;13.72;100.00;99698.34;5115232;27;20656;-83
2022/09/09 06:24:01;;;;;;;5.80;1.80;;;;;;;13.73;100.00;99697.31;5113894;27;20095;-83
2022/09/09 06:26:30;;;;;;;5.55;1.90;;;;;;;13.74;100.00;99701.63;5121840;27;20129;-79
2022/09/09 06:28:57;;;;;;;4.57;1.70;;;;;;;13.76;100.00;99694.28;5144976;27;20039;-83
2022/09/09 06:31:26;;;;;;;4.38;1.92;;;;;;;13.80;100.00;99693.94;5128541;27;20042;-82
2022/09/09 06:33:54;;;;;;;3.45;1.35;;;;;;;13.81;100.00;99701.72;5126854;27;20042;-83
2022/09/09 06:36:27;;;;;;;5.80;1.80;;;;;;;13.85;100.00;99702.19;5115495;27;20159;-83
2022/09/09 06:38:53;;;;;;;4.90;1.48;;;;;;;13.85;100.00;99707.50;5142064;27;20482;-78
2022/09/09 06:41:21;;;;;;;3.45;1.35;;;;;;;13.88;100.00;99709.78;5122001;27;20038;-82
2022/09/09 06:43:48;;;;;;;3.65;1.30;;;;;;;13.87;100.00;99711.59;5147941;27;20037;-86
2022/09/09 06:46:19;;;;;;;4.15;1.27;;;;;;;13.88;100.00;99704.47;5118283;27;20034;-81
2022/09/09 06:48:45;;;;;;;6.15;2.42;;;;;;;13.89;100.00;99708.75;5131680;27;20038;-84
2022/09/09 06:51:22;;;;;;;5.05;1.88;;;;;;;13.92;100.00;99718.22;5148079;27;20541;-82
2022/09/09 06:53:51;;;;;;;4.40;1.30;;;;;;;13.89;100.00;99722.88;5143265;27;20039;-80
2022/09/09 06:56:27;;;;;;;1.92;1.20;;;;;;;13.91;100.00;99727.16;5111719;27;20051;-81
2022/09/09 06:58:58;;;;;;;1.67;1.25;;;;;;;13.88;100.00;99723.91;5116434;27;20027;-81
2022/09/09 07:01:30;;;;;;;4.28;1.30;;;;;;;13.88;100.00;99729.22;5119312;27;20045;-88
2022/09/09 07:03:58;;;;;;;4.35;1.60;;;;;;;13.89;100.00;99724.69;5133801;27;20042;-88
2022/09/09 07:06:31;;;;;;;6.50;1.33;;;;;;;13.88;100.00;99723.91;5108659;27;20058;-85
2022/09/09 07:09:01;;;;;;;3.83;1.50;;;;;;;13.91;100.00;99727.16;5141297;27;20070;-83
2022/09/09 07:11:31;;;;;;;4.93;1.27;;;;;;;13.92;100.00;99723.53;5101331;27;20058;-81
2022/09/09 07:13:59;;;;;;;3.10;1.45;;;;;;;13.93;100.00;99714.53;5134114;27;20052;-81
2022/09/09 07:16:27;;;;;;;2.78;1.20;;;;;;;13.94;100.00;99717.00;5122065;27;20039;-90
2022/09/09 07:18:57;;;;;;;4.57;1.70;;;;;;;13.96;100.00;99715.00;5127379;27;20031;-81
2022/09/09 07:21:26;;;;;;;1.85;1.20;;;;;;;13.98;100.00;99720.13;5133586;27;20082;-82
2022/09/09 07:23:53;;;;;;;2.65;1.30;;;;;;;13.97;100.00;99715.81;5118452;27;20091;-83
2022/09/09 07:26:21;;;;;;;3.45;1.55;;;;;;;13.96;100.00;99730.09;5118223;27;20061;-85
2022/09/09 07:28:49;;;;;;;4.97;1.60;;;;;;;13.97;100.00;99729.09;5109172;27;20034;-82
2022/09/09 07:31:21;;;;;;;4.72;1.67;;;;;;;13.98;100.00;99725.44;5098543;27;20035;-82
2022/09/09 07:33:48;;;;;;;7.47;1.73;;;;;;;13.99;100.00;99727.06;5109005;27;20423;-85
2022/09/09 07:36:17;;;;;;;5.90;1.92;;;;;;;13.99;100.00;99719.94;5106851;27;20042;-80
2022/09/09 07:38:45;;;;;;;10.55;1.88;;;;;;;14.00;100.00;99720.75;5102270;27;20494;-81
2022/09/09 07:41:16;;;;;;;7.30;2.40;;;;;;;13.99;100.00;99725.25;5095107;27;20126;-81
2022/09/09 07:43:43;;;;;;;5.57;1.80;;;;;;;13.99;100.00;99730.56;5100648;27;20383;-81
2022/09/09 07:46:12;;;;;;;5.47;2.17;;;;;;;14.00;100.00;99728.72;5104176;27;20030;-81
2022/09/09 07:48:43;;;;;;;8.05;2.00;;;;;;;14.02;100.00;99734.69;5109028;27;20023;-81
2022/09/09 07:51:14;;;;;;;5.00;2.15;;;;;;;14.04;100.00;99727.34;5125447;27;20588;-88
2022/09/09 07:53:41;;;;;;;3.25;2.05;;;;;;;14.06;100.00;99745.78;5114540;27;20581;-81
2022/09/09 07:56:12;;;;;;;4.88;1.70;;;;;;;14.07;100.00;99742.09;5098824;27;20027;-81
2022/09/09 07:58:40;;;;;;;4.57;2.00;;;;;;;14.07;100.00;99752.72;5117146;27;20487;-87
2022/09/09 08:01:19;;;;;;;6.35;1.58;;;;;;;14.11;100.00;99756.69;5087287;27;20050;-83
2022/09/09 08:03:46;;;;;;;2.85;1.50;;;;;;;14.11;100.00;99748.72;5141083;27;20027;-88
2022/09/09 08:06:13;;;;;;;7.50;1.38;;;;;;;14.11;100.00;99757.47;5107142;27;20047;-82
2022/09/09 08:08:41;;;;;;;6.00;1.27;;;;;;;14.14;100.00;99759.78;5120966;27;20483;-81
2022/09/09 08:11:14;;;;;;;3.28;1.60;;;;;;;14.17;100.00;99768.38;5102447;27;20090;-81
2022/09/09 08:13:42;;;;;;;4.80;1.38;;;;;;;14.13;100.00;99763.44;5118411;27;20037;-81
2022/09/09 08:16:15;;;;;;;3.72;1.52;;;;;;;14.16;100.00;99764.91;5103984;27;20034;-82
2022/09/09 08:18:41;;;;;;;5.68;2.00;;;;;;;14.16;100.00;99764.09;5131577;27;20031;-86
2022/09/09 08:21:17;;;;;;;7.75;1.80;;;;;;;14.16;100.00;99780.84;5124007;27;20023;-84
2022/09/09 08:23:45;;;;;;;6.72;2.20;;;;;;;14.17;100.00;99771.88;5113569;27;20058;-85
2022/09/09 08:26:15;;;;;;;6.60;2.05;;;;;;;14.21;100.00;99780.28;5119010;27;20038;-85
2022/09/09 08:28:42;;;;;;;3.75;1.65;;;;;;;14.21;100.00;99780.28;5099446;27;20033;-80
2022/09/09 08:31:11;;;;;;;4.40;2.00;;;;;;;14.25;100.00;99782.38;5118865;27;20031;-85
2022/09/09 08:33:39;;;;;;;3.03;1.48;;;;;;;14.30;100.00;99781.03;5097249;27;20035;-80
2022/09/09 08:36:06;;;;;;;4.13;1.73;;;;;;;14.34;100.00;99783.13;5099103;27;20035;-84
2022/09/09 08:38:33;;;;;;;5.88;2.17;;;;;;;14.35;100.00;99787.44;5094777;27;20039;-84
2022/09/09 08:41:33;;;;;;;3.58;1.83;;;;;;;14.37;100.00;99784.59;5109485;27;20498;-84
2022/09/09 08:44:21;;;;;;;7.13;1.73;;;;;;;14.38;100.00;99795.03;5091408;27;20073;-82
2022/09/09 08:46:56;;;;;;;3.00;1.90;;;;;;;14.41;100.00;99812.47;5107566;27;20034;-83
2022/09/09 08:49:49;;;;;;;4.47;1.58;;;;;;;14.41;100.00;99815.13;5107702;27;20057;-83
2022/09/09 08:52:40;;;;;;;5.97;1.88;;;;;;;14.43;100.00;99812.28;5090455;27;20043;-83
2022/09/09 08:55:23;;;;;;;6.35;1.98;;;;;;;14.46;100.00;99817.22;5106547;27;20031;-79
2022/09/09 08:57:58;;;;;;;5.00;1.90;;;;;;;14.49;100.00;99825.63;5112254;27;20083;-84
2022/09/09 09:00:50;;;;;;;7.15;2.28;;;;;;;14.51;100.00;99823.63;5111044;27;20453;-82
2022/09/09 09:03:28;;;;;;;6.05;2.13;;;;;;;14.50;100.00;99827.31;5131069;27;20042;-84
2022/09/09 09:06:13;;;;;;;3.03;1.83;;;;;;;14.52;100.00;99824.47;5126204;27;20376;-82
2022/09/09 09:08:54;;;;;;;5.70;2.00;;;;;;;14.54;100.00;99833.06;5129834;27;20050;-82
2022/09/09 09:11:20;;;;;;;6.28;1.90;;;;;;;14.55;100.00;99841.88;5114417;27;20037;-84
2022/09/09 09:13:54;;;;;;;5.78;2.22;;;;;;;14.54;100.00;99841.03;5141237;27;20027;-87
2022/09/09 09:16:35;;;;;;;6.10;2.38;;;;;;;14.54;100.00;99848.22;5124675;27;20038;-82
2022/09/09 09:19:03;;;;;;;5.68;1.65;;;;;;;14.55;100.00;99852.50;5091655;27;20046;-81
2022/09/09 09:21:38;;;;;;;4.07;1.65;;;;;;;14.59;100.00;99856.44;5117707;27;20075;-87
2022/09/09 09:24:14;;;;;;;5.82;2.38;;;;;;;14.60;100.00;99855.44;5113437;27;20080;-83
2022/09/09 09:26:43;;;;;;;3.15;1.50;;;;;;;14.59;100.00;99861.75;5058886;27;20483;-83
2022/09/09 09:29:18;;;;;;;3.58;1.75;;;;;;;14.58;100.00;99863.59;5061181;27;20718;-87
2022/09/09 09:32:03;;;;;;;3.90;1.70;;;;;;;14.58;100.00;99860.13;5110796;27;20034;-82
2022/09/09 09:34:29;;;;;;;4.38;1.60;;;;;;;14.58;100.00;99870.75;5099855;27;20026;-84
2022/09/09 09:37:01;;;;;;;3.95;1.65;;;;;;;14.61;100.00;99870.38;5116106;27;20171;-82
2022/09/09 09:39:36;;;;;;;3.25;1.40;;;;;;;14.60;100.00;99876.72;5107767;27;20030;-83
2022/09/09 09:42:13;;;;;;;1.63;1.13;;;;;;;14.61;100.00;99889.00;5114806;27;20063;-81
2022/09/09 09:44:41;;;;;;;2.80;1.58;;;;;;;14.66;100.00;99889.28;5119984;27;20031;-88
2022/09/09 09:47:20;;;;;;;3.38;1.10;;;;;;;14.72;100.00;99899.16;5090724;27;20019;-84
2022/09/09 09:50:20;;;;;;;3.05;1.10;;;;;;;14.84;100.00;99906.72;5114832;27;20062;-82
2022/09/09 09:52:56;;;;;;;2.45;0.90;;;;;;;14.91;100.00;99904.94;5105758;27;20035;-83
2022/09/09 09:55:24;;;;;;;2.05;0.85;;;;;;;15.00;100.00;99905.69;5110026;27;20070;-82
2022/09/09 09:57:50;;;;;;;2.50;0.90;;;;;;;15.08;100.00;99907.41;5094316;28;20450;-81
2022/09/09 10:00:22;;;;;;;3.83;0.75;;;;;;;15.16;100.00;99909.13;5127011;27;20130;-86
2022/09/09 10:03:00;;;;;;;2.58;0.88;;;;;;;15.19;100.00;99912.25;5113003;27;20043;-86
2022/09/09 10:05:31;;;;;;;4.35;0.98;;;;;;;15.22;100.00;99919.03;5113684;28;20031;-84
2022/09/09 10:08:13;;;;;;;3.70;0.82;;;;;;;15.23;100.00;99916.16;5088418;28;20564;-86
2022/09/09 10:10:48;;;;;;;5.95;1.27;;;;;;;15.26;100.00;99917.63;5109771;28;20118;-83
2022/09/09 10:13:36;;;;;;;5.20;0.90;;;;;;;15.32;100.00;99918.72;5099597;28;20420;-80
2022/09/09 10:16:26;;;;;;;3.55;1.20;;;;;;;15.37;100.00;99919.78;5110869;28;20556;-82
2022/09/09 10:19:35;;;;;;;3.45;1.27;;;;;;;15.44;100.00;99927.84;5091921;28;20043;-81
2022/09/09 10:22:29;;;;;;;5.32;1.20;;;;;;;15.49;100.00;99935.28;5088323;28;20522;-86
2022/09/09 10:24:59;;;;;;;4.57;1.48;;;;;;;15.56;100.00;99927.34;5122912;28;20126;-81
2022/09/09 10:27:45;;;;;;;3.78;1.30;;;;;;;15.65;100.00;99938.69;5113799;28;20116;-81
2022/09/09 10:30:20;;;;;;;6.88;1.40;;;;;;;15.70;100.00;99938.97;5133497;27;20506;-84
2022/09/09 10:32:47;;;;;;;4.45;1.02;;;;;;;15.70;100.00;99939.75;5105006;28;20046;-82
2022/09/09 10:35:19;;;;;;;4.55;1.30;;;;;;;15.79;100.00;99939.63;5089386;28;20088;-83
2022/09/09 10:37:58;;;;;;;2.83;1.08;;;;;;;15.85;100.00;99949.53;5101593;28;20028;-86
2022/09/09 10:40:51;;;;;;;3.70;1.13;;;;;;;15.86;100.00;99952.00;5104827;28;20382;-84
2022/09/09 10:43:27;;;;;;;5.47;1.15;;;;;;;15.89;100.00;99956.16;5139195;27;20047;-81
2022/09/09 10:45:53;;;;;;;2.20;1.30;;;;;;;15.96;100.00;99961.50;5099964;28;20043;-84
2022/09/09 10:48:30;;;;;;;4.43;1.33;;;;;;;16.02;100.00;99960.81;5087857;28;20050;-82
2022/09/09 10:51:33;;;;;;;7.63;1.92;;;;;;;16.04;100.00;99963.28;5093849;28;20035;-81
2022/09/09 10:54:21;;;;;;;8.10;2.10;;;;;;;15.98;100.00;99965.69;5103672;27;20050;-81
2022/09/09 10:56:56;;;;;;;6.63;1.90;;;;;;;15.88;100.00;99963.31;5113273;27;20597;-82
2022/09/09 10:59:38;;;;;;;4.15;1.67;;;;;;;15.79;100.00;99972.44;5108748;27;20160;-87
2022/09/09 11:02:29;;;;;;;3.92;1.80;;;;;;;15.70;100.00;99978.91;5124291;27;20035;-80
2022/09/09 11:05:08;;;;;;;11.40;2.28;;;;;;;15.74;100.00;99978.34;5086014;27;20088;-82
2022/09/09 11:07:46;;;;;;;10.60;2.50;;;;;;;15.74;100.00;99983.69;5094603;27;20051;-81
2022/09/09 11:10:35;;;;;;;3.55;2.13;;;;;;;15.74;100.00;99983.69;5115892;27;20039;-82
2022/09/09 11:13:05;;;;;;;4.85;1.92;;;;;;;15.73;100.00;99989.19;5122292;27;20039;-83
2022/09/09 11:15:46;;;;;;;8.02;2.60;;;;;;;15.73;100.00;99987.38;5097410;27;20117;-85
2022/09/09 11:18:19;;;;;;;6.90;2.70;;;;;;;15.78;100.00;99988.63;5121510;27;20061;-82
2022/09/09 11:20:48;;;;;;;14.52;3.08;;;;;;;15.82;100.00;99981.88;5096852;27;20055;-84
2022/09/09 11:23:20;;;;;;;6.63;2.13;;;;;;;15.90;100.00;99986.25;5091493;27;20039;-80
2022/09/09 11:25:57;;;;;;;7.10;2.28;;;;;;;15.95;100.00;99978.53;5108318;27;20065;-83
2022/09/09 11:29:05;;;;;;;11.82;1.92;;;;;;;16.03;100.00;99978.44;5137701;27;20463;-81
2022/09/09 11:31:55;;;;;;;5.00;2.13;;;;;;;16.15;100.00;99978.72;5088759;27;20038;-81
2022/09/09 11:34:30;;;;;;;5.35;1.83;;;;;;;16.22;100.00;99981.44;5111690;27;20046;-83
2022/09/09 11:36:59;;;;;;;2.05;1.42;;;;;;;16.23;100.00;99989.25;5094597;28;20108;-84
2022/09/09 11:39:30;;;;;;;4.43;1.70;;;;;;;16.29;100.00;99985.00;5128269;27;20043;-85
2022/09/09 11:42:18;;;;;;;2.78;1.10;;;;;;;16.33;100.00;99983.59;5112494;27;20043;-85
2022/09/09 11:44:44;;;;;;;2.83;1.08;;;;;;;16.27;100.00;99987.03;5098478;27;20391;-82
2022/09/09 11:47:30;;;;;;;1.60;0.82;;;;;;;16.29;100.00;99985.00;5089119;28;20110;-82
2022/09/09 11:50:16;;;;;;;0.80;0.65;;;;;;;16.26;100.00;99987.22;5110494;27;20043;-83
2022/09/09 11:52:47;;;;;;;2.90;0.82;;;;;;;16.33;100.00;99988.94;5109381;27;20030;-81
2022/09/09 11:55:32;;;;;;;2.13;0.70;;;;;;;16.48;100.00;99985.34;5122546;27;20070;-82
2022/09/09 11:58:05;;;;;;;0.57;0.57;;;;;;;16.57;100.00;99981.50;5118423;27;20028;-84